Time;durP1;ratioP1;P1;durP2;ratioP2;P2;SDS_P1;SDS_P2;PMS_P1;PMS_P2;Temp;Humidity;BMP_temperature;BMP_pressure;BME280_temperature;BME280_humidity;BME280_pressure;Samples;Min_cycle;Max_cycle;Signal;HPM_P1;HPM_P2
2022/05/02 00:00:46;;;;;;;12.75;10.20;;;;;;;;;;5005129;28;20590;-68
2022/05/02 00:03:12;;;;;;;11.85;10.50;;;;;;;;;;5025662;28;20116;-68
2022/05/02 00:05:38;;;;;;;14.25;10.57;;;;;;;;;;5020924;28;20484;-70
2022/05/02 00:08:04;;;;;;;12.82;11.00;;;;;;;;;;5025640;28;20029;-68
2022/05/02 00:10:29;;;;;;;11.38;10.00;;;;;;;;;;5024453;28;20258;-68
2022/05/02 00:12:55;;;;;;;13.02;10.15;;;;;;;;;;5021215;28;20017;-70
2022/05/02 00:15:20;;;;;;;14.88;11.07;;;;;;;;;;5022270;28;20021;-67
2022/05/02 00:17:58;;;;;;;13.32;10.48;;;;;;;;;;5025272;28;20473;-68
2022/05/02 00:20:24;;;;;;;14.38;10.32;;;;;;;;;;5022485;28;20025;-68
2022/05/02 00:22:50;;;;;;;13.60;11.30;;;;;;;;;;5026400;28;20048;-69
2022/05/02 00:25:16;;;;;;;12.48;10.40;;;;;;;;;;5021179;28;20022;-69
2022/05/02 00:27:42;;;;;;;14.32;10.93;;;;;;;;;;5022143;28;20121;-69
2022/05/02 00:30:08;;;;;;;13.73;10.60;;;;;;;;;;5003510;28;20120;-69
2022/05/02 00:32:33;;;;;;;13.95;11.07;;;;;;;;;;5023225;28;20534;-70
2022/05/02 00:34:59;;;;;;;13.35;10.90;;;;;;;;;;5021051;28;20049;-67
2022/05/02 00:37:24;;;;;;;12.77;10.15;;;;;;;;;;5022457;28;20028;-69
2022/05/02 00:39:49;;;;;;;12.82;10.68;;;;;;;;;;5007770;28;20052;-68
2022/05/02 00:42:20;;;;;;;14.80;11.40;;;;;;;;;;5019455;28;20064;-69
2022/05/02 00:44:48;;;;;;;13.10;10.68;;;;;;;;;;5021049;28;20033;-68
2022/05/02 00:47:20;;;;;;;14.70;11.95;;;;;;;;;;5023986;28;20063;-67
2022/05/02 00:49:50;;;;;;;14.30;11.93;;;;;;;;;;5024055;28;20025;-70
2022/05/02 00:52:16;;;;;;;13.95;11.88;;;;;;;;;;5020922;28;20056;-68
2022/05/02 00:54:42;;;;;;;13.13;11.20;;;;;;;;;;5023719;28;20018;-69
2022/05/02 00:57:07;;;;;;;13.15;10.77;;;;;;;;;;5020785;28;20075;-68
2022/05/02 00:59:34;;;;;;;13.23;11.82;;;;;;;;;;5021002;28;20032;-69
2022/05/02 01:01:59;;;;;;;14.00;11.70;;;;;;;;;;5022346;28;20038;-68
2022/05/02 01:04:24;;;;;;;13.40;11.82;;;;;;;;;;5022856;28;20028;-68
2022/05/02 01:09:34;;;;;;;15.07;12.77;;;;;;;;;;5021086;28;20458;-68
2022/05/02 01:11:59;;;;;;;14.63;12.43;;;;;;;;;;5025049;28;20014;-67
2022/05/02 01:14:25;;;;;;;14.60;12.18;;;;;;;;;;5027093;28;20120;-68
2022/05/02 01:16:50;;;;;;;15.95;12.30;;;;;;;;;;5027162;28;20053;-69
2022/05/02 01:19:16;;;;;;;13.45;11.65;;;;;;;;;;5023665;28;20018;-69
2022/05/02 01:21:44;;;;;;;16.55;12.35;;;;;;;;;;5019629;28;20059;-67
2022/05/02 01:24:09;;;;;;;17.77;12.55;;;;;;;;;;5022618;28;20167;-69
2022/05/02 01:26:35;;;;;;;15.25;13.02;;;;;;;;;;5019297;28;20119;-69
2022/05/02 01:29:01;;;;;;;16.08;13.57;;;;;;;;;;5018879;28;20114;-69
2022/05/02 01:31:26;;;;;;;17.35;13.98;;;;;;;;;;5021299;28;20105;-68
2022/05/02 01:33:52;;;;;;;15.40;13.43;;;;;;;;;;5023029;28;20366;-67
2022/05/02 01:36:18;;;;;;;15.38;12.70;;;;;;;;;;5019987;28;20091;-68
2022/05/02 01:38:44;;;;;;;18.75;14.18;;;;;;;;;;5021240;28;20033;-68
2022/05/02 01:41:10;;;;;;;15.52;13.20;;;;;;;;;;5021287;28;20098;-69
2022/05/02 01:43:36;;;;;;;16.50;13.15;;;;;;;;;;5021797;28;20025;-68
2022/05/02 01:46:03;;;;;;;16.88;13.65;;;;;;;;;;5023407;28;20052;-68
2022/05/02 01:48:28;;;;;;;15.02;12.38;;;;;;;;;;5019396;28;20028;-68
2022/05/02 01:50:54;;;;;;;15.23;12.43;;;;;;;;;;5020542;28;20319;-68
2022/05/02 01:53:20;;;;;;;15.75;13.85;;;;;;;;;;5022946;28;20037;-69
2022/05/02 01:55:46;;;;;;;17.90;14.20;;;;;;;;;;5021937;28;20041;-68
2022/05/02 01:58:11;;;;;;;16.60;13.43;;;;;;;;;;5023063;28;20064;-68
2022/05/02 02:00:37;;;;;;;20.02;14.00;;;;;;;;;;5019048;28;20095;-69
2022/05/02 02:03:02;;;;;;;17.98;13.45;;;;;;;;;;5022356;28;20056;-69
2022/05/02 02:08:11;;;;;;;18.33;13.82;;;;;;;;;;5024220;28;20068;-69
2022/05/02 02:10:36;;;;;;;17.60;15.02;;;;;;;;;;5004692;28;20025;-68
2022/05/02 02:13:02;;;;;;;16.23;13.73;;;;;;;;;;5022619;28;20079;-68
2022/05/02 02:15:27;;;;;;;15.27;13.68;;;;;;;;;;5019119;28;20025;-68
2022/05/02 02:17:52;;;;;;;15.63;13.52;;;;;;;;;;5021998;28;20021;-68
2022/05/02 02:20:17;;;;;;;18.27;14.07;;;;;;;;;;5019989;28;20392;-69
2022/05/02 02:22:43;;;;;;;15.70;13.70;;;;;;;;;;5021576;28;20841;-69
2022/05/02 02:25:08;;;;;;;16.65;14.10;;;;;;;;;;5022272;28;20025;-69
2022/05/02 02:27:33;;;;;;;17.13;13.82;;;;;;;;;;5018952;28;20109;-68
2022/05/02 02:29:59;;;;;;;15.02;13.43;;;;;;;;;;5019294;28;20022;-70
2022/05/02 02:32:25;;;;;;;17.58;14.20;;;;;;;;;;5021631;28;20025;-68
2022/05/02 02:34:51;;;;;;;17.55;13.95;;;;;;;;;;5005349;28;20413;-68
2022/05/02 02:37:17;;;;;;;16.42;13.63;;;;;;;;;;5020965;28;20450;-68
2022/05/02 02:39:43;;;;;;;16.00;14.25;;;;;;;;;;5018271;28;20029;-68
2022/05/02 02:42:08;;;;;;;17.90;14.10;;;;;;;;;;5021712;28;20060;-68
2022/05/02 02:44:33;;;;;;;16.17;13.85;;;;;;;;;;5015277;28;20144;-68
2022/05/02 02:46:59;;;;;;;15.27;13.55;;;;;;;;;;5020352;28;20871;-70
2022/05/02 02:49:24;;;;;;;15.68;12.63;;;;;;;;;;5021466;28;20344;-68
2022/05/02 02:51:50;;;;;;;17.33;14.05;;;;;;;;;;5001219;28;20151;-68
2022/05/02 02:54:15;;;;;;;16.52;13.52;;;;;;;;;;5021054;28;20415;-68
2022/05/02 02:56:40;;;;;;;17.40;14.52;;;;;;;;;;5018436;28;20531;-68
2022/05/02 02:59:05;;;;;;;15.70;14.07;;;;;;;;;;5022949;28;20172;-68
2022/05/02 03:01:30;;;;;;;16.77;13.63;;;;;;;;;;5024923;28;20033;-68
2022/05/02 03:03:56;;;;;;;16.40;14.05;;;;;;;;;;5007955;28;20033;-67
2022/05/02 03:06:21;;;;;;;17.23;13.85;;;;;;;;;;5022655;28;20056;-69
2022/05/02 03:08:47;;;;;;;18.17;14.25;;;;;;;;;;5023654;28;20182;-68
2022/05/02 03:11:12;;;;;;;17.30;13.98;;;;;;;;;;5025350;28;20040;-68
2022/05/02 03:13:38;;;;;;;17.00;14.40;;;;;;;;;;5023800;28;20079;-68
2022/05/02 03:16:04;;;;;;;17.02;13.70;;;;;;;;;;5007041;28;20026;-67
2022/05/02 03:18:31;;;;;;;16.85;14.05;;;;;;;;;;5024785;28;20104;-68
2022/05/02 03:20:56;;;;;;;16.27;12.70;;;;;;;;;;5005277;28;20072;-68
2022/05/02 03:23:23;;;;;;;15.45;13.20;;;;;;;;;;5025950;28;20287;-68
2022/05/02 03:25:48;;;;;;;16.65;13.35;;;;;;;;;;5024828;28;20488;-68
2022/05/02 03:28:13;;;;;;;18.35;14.05;;;;;;;;;;5024809;28;20060;-68
2022/05/02 03:30:38;;;;;;;17.42;14.02;;;;;;;;;;5021857;28;20362;-68
2022/05/02 03:33:04;;;;;;;17.48;13.45;;;;;;;;;;5025764;28;20439;-69
2022/05/02 03:35:29;;;;;;;14.90;13.25;;;;;;;;;;5022283;28;20460;-68
2022/05/02 03:37:55;;;;;;;16.67;13.20;;;;;;;;;;5022772;28;20352;-69
2022/05/02 03:40:20;;;;;;;16.02;13.35;;;;;;;;;;5024290;28;20374;-68
2022/05/02 03:42:46;;;;;;;16.80;13.63;;;;;;;;;;5021210;28;20254;-68
2022/05/02 03:45:11;;;;;;;17.33;14.32;;;;;;;;;;5020634;28;20376;-68
2022/05/02 03:47:36;;;;;;;18.45;13.80;;;;;;;;;;5019745;28;20495;-68
2022/05/02 03:50:02;;;;;;;16.38;13.63;;;;;;;;;;5021463;28;20410;-68
2022/05/02 03:52:27;;;;;;;18.92;13.65;;;;;;;;;;5023729;28;20071;-69
2022/05/02 03:54:53;;;;;;;17.45;14.18;;;;;;;;;;5022114;28;20071;-68
2022/05/02 03:57:18;;;;;;;16.30;13.88;;;;;;;;;;5022075;28;20056;-68
2022/05/02 03:59:43;;;;;;;18.50;14.52;;;;;;;;;;5004482;28;20029;-68
2022/05/02 04:02:09;;;;;;;18.30;14.73;;;;;;;;;;5024517;28;20018;-68
2022/05/02 04:04:34;;;;;;;17.25;14.63;;;;;;;;;;5022394;28;20444;-69
2022/05/02 04:06:59;;;;;;;16.58;14.20;;;;;;;;;;5022366;28;20368;-69
2022/05/02 04:09:24;;;;;;;17.27;14.32;;;;;;;;;;5023526;28;20128;-69
2022/05/02 04:11:49;;;;;;;19.55;14.70;;;;;;;;;;5021136;28;20208;-68
2022/05/02 04:14:15;;;;;;;16.50;13.80;;;;;;;;;;5023207;28;20457;-68
2022/05/02 04:16:40;;;;;;;20.33;15.52;;;;;;;;;;5023033;28;20087;-68
2022/05/02 04:19:05;;;;;;;17.02;14.75;;;;;;;;;;5025286;28;20029;-68
2022/05/02 04:21:31;;;;;;;16.83;14.52;;;;;;;;;;5024347;28;20065;-68
2022/05/02 04:23:57;;;;;;;18.65;13.73;;;;;;;;;;5026248;28;20069;-68
2022/05/02 04:26:23;;;;;;;17.77;14.07;;;;;;;;;;5023546;28;20064;-68
2022/05/02 04:28:49;;;;;;;18.42;14.60;;;;;;;;;;5017852;28;20112;-68
2022/05/02 04:31:14;;;;;;;18.70;14.50;;;;;;;;;;5024796;28;20383;-68
2022/05/02 04:33:40;;;;;;;18.50;14.88;;;;;;;;;;5023765;28;20159;-69
2022/05/02 04:36:05;;;;;;;17.92;15.32;;;;;;;;;;5005323;28;20029;-68
2022/05/02 04:38:33;;;;;;;18.60;14.38;;;;;;;;;;5023130;28;20621;-69
2022/05/02 04:40:59;;;;;;;18.02;14.98;;;;;;;;;;5024400;28;20033;-68
2022/05/02 04:43:24;;;;;;;18.95;14.20;;;;;;;;;;5021749;28;20033;-68
2022/05/02 04:45:50;;;;;;;16.52;13.82;;;;;;;;;;5018246;28;20025;-70
2022/05/02 04:48:16;;;;;;;17.90;14.65;;;;;;;;;;5022899;28;20021;-69
2022/05/02 04:50:41;;;;;;;17.88;14.68;;;;;;;;;;5026196;28;20049;-68
2022/05/02 04:53:06;;;;;;;21.58;16.05;;;;;;;;;;5024321;28;20021;-68
2022/05/02 04:55:31;;;;;;;21.02;16.27;;;;;;;;;;5024430;28;20032;-68
2022/05/02 04:57:56;;;;;;;18.80;15.90;;;;;;;;;;5017245;28;20736;-68
2022/05/02 05:00:22;;;;;;;18.20;15.63;;;;;;;;;;5021325;28;20192;-68
2022/05/02 05:02:47;;;;;;;20.20;16.00;;;;;;;;;;5003383;28;20045;-68
2022/05/02 05:05:12;;;;;;;19.73;15.88;;;;;;;;;;5021089;28;20037;-68
2022/05/02 05:07:38;;;;;;;17.88;15.35;;;;;;;;;;5020539;28;20027;-67
2022/05/02 05:10:05;;;;;;;22.60;16.67;;;;;;;;;;5022164;28;20028;-69
2022/05/02 05:12:43;;;;;;;22.95;16.50;;;;;;;;;;5019897;28;20016;-67
2022/05/02 05:18:22;;;;;;;20.83;16.65;;;;;;;;;;5021232;28;20048;-68
2022/05/02 05:21:07;;;;;;;21.30;16.75;;;;;;;;;;5017778;28;20056;-68
2022/05/02 05:23:47;;;;;;;21.65;17.65;;;;;;;;;;5022719;28;20052;-69
2022/05/02 05:26:16;;;;;;;21.92;16.10;;;;;;;;;;5022198;28;20029;-68
2022/05/02 05:28:56;;;;;;;23.13;17.77;;;;;;;;;;5016072;28;20017;-69
2022/05/02 05:31:37;;;;;;;24.60;18.73;;;;;;;;;;5020011;28;20025;-69
2022/05/02 05:34:23;;;;;;;22.55;17.55;;;;;;;;;;5019127;28;20137;-67
2022/05/02 05:36:55;;;;;;;21.77;17.95;;;;;;;;;;5015832;28;20053;-68
2022/05/02 05:39:51;;;;;;;21.90;17.13;;;;;;;;;;5021854;28;20051;-67
2022/05/02 05:42:20;;;;;;;18.83;15.70;;;;;;;;;;5000752;28;20014;-67
2022/05/02 05:45:08;;;;;;;23.73;17.60;;;;;;;;;;5018481;28;20033;-70
2022/05/02 05:47:41;;;;;;;22.60;17.50;;;;;;;;;;5022372;28;21577;-69
2022/05/02 05:50:06;;;;;;;21.92;17.80;;;;;;;;;;5018522;28;20057;-69
2022/05/02 05:52:36;;;;;;;22.45;17.58;;;;;;;;;;5020464;28;20782;-69
2022/05/02 05:55:11;;;;;;;23.27;17.30;;;;;;;;;;5020530;28;20131;-68
2022/05/02 05:58:00;;;;;;;20.40;16.90;;;;;;;;;;5018046;28;20029;-68
2022/05/02 06:00:29;;;;;;;22.15;17.55;;;;;;;;;;5029769;28;20073;-67
2022/05/02 06:03:00;;;;;;;20.92;17.55;;;;;;;;;;5019676;28;20040;-68
2022/05/02 06:05:26;;;;;;;18.60;15.90;;;;;;;;;;5019888;28;20014;-69
2022/05/02 06:07:52;;;;;;;19.08;15.20;;;;;;;;;;5019758;28;20449;-69
2022/05/02 06:10:18;;;;;;;18.65;16.58;;;;;;;;;;5021741;28;20713;-69
2022/05/02 06:12:44;;;;;;;18.10;15.82;;;;;;;;;;5017248;28;20105;-69
2022/05/02 06:20:43;;;;;;;19.85;14.73;;;;;;;;;;5017575;28;20039;-69
2022/05/02 06:23:09;;;;;;;18.98;15.65;;;;;;;;;;5018747;28;20507;-68
2022/05/02 06:25:35;;;;;;;18.10;16.20;;;;;;;;;;5017889;28;20480;-69
2022/05/02 06:28:02;;;;;;;18.80;14.70;;;;;;;;;;5017443;28;20107;-68
2022/05/02 06:30:28;;;;;;;16.98;14.07;;;;;;;;;;5020966;28;20487;-68
2022/05/02 06:32:54;;;;;;;17.23;13.85;;;;;;;;;;5018122;28;20127;-68
2022/05/02 06:35:19;;;;;;;16.75;13.25;;;;;;;;;;5019773;28;20033;-68
2022/05/02 06:37:57;;;;;;;15.25;13.65;;;;;;;;;;5019021;28;20514;-68
2022/05/02 06:40:36;;;;;;;14.30;12.85;;;;;;;;;;5021689;28;20021;-68
2022/05/02 06:43:24;;;;;;;16.13;13.38;;;;;;;;;;5016214;28;20075;-68
2022/05/02 06:45:56;;;;;;;16.50;13.88;;;;;;;;;;5016452;28;20364;-68
2022/05/02 06:48:28;;;;;;;16.10;12.90;;;;;;;;;;5021178;28;20595;-70
2022/05/02 06:50:55;;;;;;;14.40;12.90;;;;;;;;;;5015968;28;20026;-68
2022/05/02 06:53:45;;;;;;;13.20;11.90;;;;;;;;;;5020762;28;20021;-69
2022/05/02 06:56:26;;;;;;;14.10;11.65;;;;;;;;;;5020814;28;20081;-70
2022/05/02 06:59:14;;;;;;;14.60;12.40;;;;;;;;;;5018497;28;20526;-67
2022/05/02 07:01:39;;;;;;;14.85;13.27;;;;;;;;;;5021400;28;20218;-68
2022/05/02 07:04:31;;;;;;;13.88;11.73;;;;;;;;;;5017097;28;20802;-68
2022/05/02 07:06:57;;;;;;;12.43;11.15;;;;;;;;;;5007871;28;20029;-68
2022/05/02 07:09:36;;;;;;;13.88;12.27;;;;;;;;;;5020334;28;20094;-69
2022/05/02 07:12:05;;;;;;;15.70;11.70;;;;;;;;;;5015843;28;20108;-68
2022/05/02 07:14:35;;;;;;;13.70;12.00;;;;;;;;;;5020081;28;20421;-69
2022/05/02 07:17:04;;;;;;;13.52;12.10;;;;;;;;;;5018657;28;20083;-69
2022/05/02 07:19:38;;;;;;;14.10;12.13;;;;;;;;;;5021021;28;20075;-69
2022/05/02 07:22:04;;;;;;;16.65;13.20;;;;;;;;;;5014501;28;20055;-68
2022/05/02 07:24:48;;;;;;;14.55;12.70;;;;;;;;;;5019792;28;20470;-69
2022/05/02 07:27:22;;;;;;;13.40;12.05;;;;;;;;;;5015753;28;20017;-68
2022/05/02 07:29:54;;;;;;;13.85;11.60;;;;;;;;;;5018765;28;20147;-67
2022/05/02 07:32:24;;;;;;;15.00;11.38;;;;;;;;;;5021232;28;20017;-69
2022/05/02 07:34:54;;;;;;;12.27;10.18;;;;;;;;;;5016495;28;20017;-69
2022/05/02 07:37:22;;;;;;;15.07;10.07;;;;;;;;;;5014537;28;20072;-69
2022/05/02 07:39:51;;;;;;;11.30;10.10;;;;;;;;;;5020048;28;20029;-69
2022/05/02 07:42:18;;;;;;;11.35;9.98;;;;;;;;;;5018222;28;20021;-69
2022/05/02 07:44:44;;;;;;;14.38;11.25;;;;;;;;;;5019154;28;20041;-69
2022/05/02 07:47:11;;;;;;;11.90;10.57;;;;;;;;;;5029258;28;20025;-69
2022/05/02 07:49:37;;;;;;;14.10;10.60;;;;;;;;;;5028303;28;20183;-68
2022/05/02 07:52:03;;;;;;;11.63;9.60;;;;;;;;;;5020621;28;20085;-69
2022/05/02 07:54:29;;;;;;;11.60;9.48;;;;;;;;;;5022685;28;20013;-68
2022/05/02 07:56:59;;;;;;;10.40;9.30;;;;;;;;;;5020444;28;20044;-69
2022/05/02 07:59:26;;;;;;;10.38;9.27;;;;;;;;;;5019287;28;20021;-69
2022/05/02 08:01:53;;;;;;;10.77;8.88;;;;;;;;;;5022744;28;20021;-69
2022/05/02 08:04:18;;;;;;;9.95;8.20;;;;;;;;;;5023055;28;20048;-69
2022/05/02 08:06:44;;;;;;;7.60;6.90;;;;;;;;;;5022972;28;20032;-67
2022/05/02 08:09:12;;;;;;;8.80;7.90;;;;;;;;;;5022464;28;20482;-68
2022/05/02 08:11:55;;;;;;;10.32;7.68;;;;;;;;;;5023528;28;20409;-68
2022/05/02 08:14:25;;;;;;;10.57;8.02;;;;;;;;;;5023100;28;20120;-69
2022/05/02 08:17:02;;;;;;;9.07;7.45;;;;;;;;;;5024426;28;20377;-69
2022/05/02 08:19:30;;;;;;;8.00;7.20;;;;;;;;;;5007671;28;20032;-70
2022/05/02 08:28:07;;;;;;;8.10;6.15;;;;;;;;;;5022110;28;20071;-69
2022/05/02 08:30:37;;;;;;;9.82;6.85;;;;;;;;;;5023241;28;20014;-69
2022/05/02 08:33:07;;;;;;;7.88;5.90;;;;;;;;;;5022204;28;20116;-69
2022/05/02 08:35:39;;;;;;;8.07;6.60;;;;;;;;;;5021985;28;20105;-68
2022/05/02 08:38:07;;;;;;;7.73;6.73;;;;;;;;;;5023942;28;20045;-68
2022/05/02 08:40:54;;;;;;;7.13;5.97;;;;;;;;;;5025140;28;20476;-69
2022/05/02 08:43:22;;;;;;;9.10;5.85;;;;;;;;;;5021447;28;20024;-68
2022/05/02 08:46:11;;;;;;;8.52;6.20;;;;;;;;;;5021581;28;20026;-69
2022/05/02 08:49:32;;;;;;;7.93;5.68;;;;;;;;;;5023120;28;20053;-70
2022/05/02 08:51:48;;;;;;;7.53;6.32;;;;;;;;;;5024812;28;20101;-69
2022/05/02 08:54:37;;;;;;;9.10;6.72;;;;;;;;;;5023240;28;20021;-68
2022/05/02 08:57:08;;;;;;;9.13;7.05;;;;;;;;;;5019256;28;20034;-68
2022/05/02 08:59:36;;;;;;;10.05;7.65;;;;;;;;;;5022172;28;20016;-69
2022/05/02 09:02:02;;;;;;;8.40;7.07;;;;;;;;;;5025386;28;20435;-69
2022/05/02 09:04:47;;;;;;;8.90;6.93;;;;;;;;;;5024840;28;20108;-68
2022/05/02 09:07:39;;;;;;;8.57;7.72;;;;;;;;;;5025621;28;20021;-69
2022/05/02 09:10:24;;;;;;;8.40;7.55;;;;;;;;;;5020372;28;20454;-69
2022/05/02 09:13:08;;;;;;;11.88;8.15;;;;;;;;;;5023038;28;20017;-68
2022/05/02 09:16:01;;;;;;;11.88;7.80;;;;;;;;;;5024119;28;20030;-68
2022/05/02 09:18:39;;;;;;;9.15;7.45;;;;;;;;;;5024935;28;20036;-68
2022/05/02 09:21:21;;;;;;;10.18;7.88;;;;;;;;;;5027105;28;20037;-69
2022/05/02 09:23:49;;;;;;;11.32;8.85;;;;;;;;;;5023638;28;20120;-68
2022/05/02 09:26:28;;;;;;;10.57;7.93;;;;;;;;;;5021740;28;20021;-69
2022/05/02 09:28:59;;;;;;;11.52;8.00;;;;;;;;;;5017198;28;20021;-67
2022/05/02 09:31:51;;;;;;;9.07;8.27;;;;;;;;;;5023389;28;20360;-68
2022/05/02 09:34:18;;;;;;;11.13;8.50;;;;;;;;;;5022981;28;20166;-67
2022/05/02 09:36:43;;;;;;;9.82;7.53;;;;;;;;;;5021774;28;20044;-68
2022/05/02 09:39:11;;;;;;;9.32;8.00;;;;;;;;;;5021420;28;20044;-70
2022/05/02 09:41:51;;;;;;;8.73;7.55;;;;;;;;;;5020677;28;20215;-68
2022/05/02 09:50:06;;;;;;;9.27;8.30;;;;;;;;;;5028894;28;20188;-69
2022/05/02 09:52:57;;;;;;;9.35;8.02;;;;;;;;;;5026479;28;20063;-70
2022/05/02 09:58:26;;;;;;;10.15;8.30;;;;;;;;;;5020410;28;20044;-68
2022/05/02 10:01:07;;;;;;;11.00;8.75;;;;;;;;;;5019520;28;20033;-69
2022/05/02 10:03:40;;;;;;;10.75;9.57;;;;;;;;;;5023385;28;20021;-69
2022/05/02 10:06:18;;;;;;;10.35;9.25;;;;;;;;;;5021017;28;20045;-69
2022/05/02 10:08:52;;;;;;;13.13;9.90;;;;;;;;;;5023662;28;20053;-68
2022/05/02 10:11:32;;;;;;;10.98;9.88;;;;;;;;;;5022617;28;20286;-68
2022/05/02 10:14:19;;;;;;;10.48;9.43;;;;;;;;;;5021870;28;20032;-67
2022/05/02 10:16:44;;;;;;;11.43;10.18;;;;;;;;;;5005928;28;20419;-68
2022/05/02 10:19:21;;;;;;;10.73;9.35;;;;;;;;;;5022690;28;20048;-72
2022/05/02 10:21:47;;;;;;;11.40;9.85;;;;;;;;;;5021748;28;20226;-68
2022/05/02 10:24:42;;;;;;;13.50;10.13;;;;;;;;;;5022654;28;20112;-68
2022/05/02 10:27:18;;;;;;;12.77;9.40;;;;;;;;;;5019835;28;20021;-69
2022/05/02 10:29:46;;;;;;;14.25;10.80;;;;;;;;;;5023067;28;20420;-68
2022/05/02 10:32:25;;;;;;;11.23;9.93;;;;;;;;;;5021848;28;20088;-68
2022/05/02 10:34:59;;;;;;;13.02;10.18;;;;;;;;;;5023360;28;20120;-69
2022/05/02 10:37:28;;;;;;;13.27;9.90;;;;;;;;;;5020158;28;20025;-68
2022/05/02 10:39:57;;;;;;;11.98;10.30;;;;;;;;;;5023758;28;20155;-70
2022/05/02 10:42:25;;;;;;;12.02;10.18;;;;;;;;;;5018681;28;20359;-70
2022/05/02 10:45:03;;;;;;;9.93;8.93;;;;;;;;;;5021654;28;20056;-67
2022/05/02 10:47:30;;;;;;;10.65;8.82;;;;;;;;;;5020601;28;20424;-68
2022/05/02 10:50:05;;;;;;;10.95;9.50;;;;;;;;;;5022437;28;20021;-69
2022/05/02 10:52:35;;;;;;;10.90;9.40;;;;;;;;;;5016977;28;20009;-68
2022/05/02 10:55:07;;;;;;;10.57;9.48;;;;;;;;;;5022603;28;20494;-68
2022/05/02 10:57:39;;;;;;;10.02;9.02;;;;;;;;;;5020128;28;20431;-68
2022/05/02 11:00:09;;;;;;;10.80;9.20;;;;;;;;;;5020688;28;20030;-68
2022/05/02 11:02:35;;;;;;;10.25;9.35;;;;;;;;;;5023259;28;20057;-70
2022/05/02 11:05:00;;;;;;;9.52;8.30;;;;;;;;;;5020593;28;20059;-67
2022/05/02 11:07:31;;;;;;;9.07;8.15;;;;;;;;;;5022145;28;20065;-68
2022/05/02 11:09:56;;;;;;;12.40;9.45;;;;;;;;;;5022061;28;20468;-70
2022/05/02 11:12:22;;;;;;;10.50;9.32;;;;;;;;;;5019599;28;20083;-70
2022/05/02 11:15:06;;;;;;;9.90;8.70;;;;;;;;;;5021340;28;20032;-68
2022/05/02 11:17:44;;;;;;;10.30;9.32;;;;;;;;;;5020256;28;20025;-69
2022/05/02 11:23:14;;;;;;;12.05;10.30;;;;;;;;;;5026997;28;20102;-69
2022/05/02 11:25:43;;;;;;;11.20;8.48;;;;;;;;;;5027117;28;20018;-70
2022/05/02 11:28:29;;;;;;;10.93;8.70;;;;;;;;;;5024186;28;20375;-69
2022/05/02 11:30:54;;;;;;;11.13;9.88;;;;;;;;;;5024955;28;20068;-70
2022/05/02 11:33:20;;;;;;;9.52;8.60;;;;;;;;;;5027529;28;20417;-69
2022/05/02 11:35:47;;;;;;;10.48;9.38;;;;;;;;;;5024000;28;20017;-71
2022/05/02 11:38:32;;;;;;;10.88;9.77;;;;;;;;;;5025788;28;20472;-69
2022/05/02 11:40:59;;;;;;;10.75;9.60;;;;;;;;;;5027501;28;20025;-68
2022/05/02 11:43:27;;;;;;;11.32;10.10;;;;;;;;;;5020196;28;20572;-69
2022/05/02 11:46:11;;;;;;;10.95;9.85;;;;;;;;;;5023108;28;20025;-67
2022/05/02 11:48:51;;;;;;;13.00;10.50;;;;;;;;;;5025211;28;20037;-69
2022/05/02 11:51:25;;;;;;;11.82;10.63;;;;;;;;;;5022901;28;20021;-69
2022/05/02 11:53:54;;;;;;;12.50;11.23;;;;;;;;;;5025114;28;20049;-69
2022/05/02 11:56:23;;;;;;;11.60;10.40;;;;;;;;;;5024619;28;20079;-67
2022/05/02 11:58:54;;;;;;;13.68;11.13;;;;;;;;;;5022472;28;20030;-68
2022/05/02 12:01:24;;;;;;;15.07;11.95;;;;;;;;;;5025617;28;20044;-68
2022/05/02 12:03:53;;;;;;;13.00;11.57;;;;;;;;;;5025686;28;20025;-71
2022/05/02 12:06:31;;;;;;;14.25;10.75;;;;;;;;;;5022717;28;20044;-68
2022/05/02 12:08:59;;;;;;;13.27;11.02;;;;;;;;;;5026021;28;20083;-67
2022/05/02 12:11:28;;;;;;;10.40;9.20;;;;;;;;;;5023098;28;20484;-68
2022/05/02 12:13:55;;;;;;;10.15;9.10;;;;;;;;;;5021555;28;20547;-69
2022/05/02 12:16:20;;;;;;;12.45;10.73;;;;;;;;;;5025521;28;20010;-69
2022/05/02 12:18:47;;;;;;;11.63;10.30;;;;;;;;;;5012073;28;20025;-68
2022/05/02 12:21:23;;;;;;;12.10;10.20;;;;;;;;;;5022233;28;20033;-69
2022/05/02 12:23:49;;;;;;;11.48;10.38;;;;;;;;;;5023174;28;20129;-68
2022/05/02 12:26:22;;;;;;;11.30;10.07;;;;;;;;;;5025197;28;20105;-68
2022/05/02 12:28:51;;;;;;;12.05;10.40;;;;;;;;;;5022410;28;20017;-68
2022/05/02 12:31:22;;;;;;;12.35;11.05;;;;;;;;;;5022965;28;20024;-69
2022/05/02 12:33:50;;;;;;;12.32;11.00;;;;;;;;;;5024900;28;20414;-69
2022/05/02 12:36:20;;;;;;;13.18;11.45;;;;;;;;;;5020235;28;20021;-68
2022/05/02 12:38:53;;;;;;;15.80;10.55;;;;;;;;;;5024815;28;20104;-70
2022/05/02 12:41:27;;;;;;;13.23;11.30;;;;;;;;;;5024042;28;20013;-68
2022/05/02 12:43:58;;;;;;;12.38;11.10;;;;;;;;;;5021004;28;20088;-69
2022/05/02 12:46:32;;;;;;;11.52;10.32;;;;;;;;;;5023827;28;20021;-68
2022/05/02 12:49:03;;;;;;;11.15;9.80;;;;;;;;;;5024271;28;20123;-69
2022/05/02 12:51:30;;;;;;;13.15;9.50;;;;;;;;;;5020867;28;20086;-68
2022/05/02 12:54:14;;;;;;;11.27;10.05;;;;;;;;;;5023984;28;20492;-67
2022/05/02 13:00:30;;;;;;;10.55;9.43;;;;;;;;;;5003223;28;20029;-69
2022/05/02 13:02:33;;;;;;;9.70;8.32;;;;;;;;;;5024286;28;20033;-69
2022/05/02 13:04:59;;;;;;;9.55;8.00;;;;;;;;;;5023942;28;20029;-70
2022/05/02 13:07:26;;;;;;;8.75;7.85;;;;;;;;;;5022757;28;20028;-68
2022/05/02 13:09:52;;;;;;;8.77;7.93;;;;;;;;;;5025295;28;20045;-69
2022/05/02 13:12:18;;;;;;;12.35;8.10;;;;;;;;;;5023859;28;20423;-70
2022/05/02 13:14:44;;;;;;;8.55;7.82;;;;;;;;;;5021656;28;20408;-71
2022/05/02 13:17:15;;;;;;;9.55;8.05;;;;;;;;;;5022518;28;20026;-69
2022/05/02 13:19:41;;;;;;;8.85;7.85;;;;;;;;;;5024581;28;20105;-68
2022/05/02 13:22:07;;;;;;;11.02;7.95;;;;;;;;;;5021988;28;20076;-70
2022/05/02 13:24:32;;;;;;;9.23;7.43;;;;;;;;;;5023225;28;20214;-69
2022/05/02 13:26:57;;;;;;;9.25;8.45;;;;;;;;;;5022711;28;20032;-69
2022/05/02 13:29:28;;;;;;;8.13;6.80;;;;;;;;;;5019228;28;20107;-70
2022/05/02 13:32:02;;;;;;;9.65;7.28;;;;;;;;;;5026540;28;20068;-70
2022/05/02 13:34:31;;;;;;;9.32;7.32;;;;;;;;;;5020759;28;20021;-70
2022/05/02 13:40:02;;;;;;;10.25;8.23;;;;;;;;;;5023320;28;20518;-70
2022/05/02 13:42:50;;;;;;;9.02;8.18;;;;;;;;;;5020046;28;20014;-68
2022/05/02 13:45:16;;;;;;;9.15;7.70;;;;;;;;;;5018328;28;20022;-69
2022/05/02 13:47:42;;;;;;;9.98;7.97;;;;;;;;;;5020562;28;20026;-70
2022/05/02 13:50:12;;;;;;;8.90;7.10;;;;;;;;;;5019460;28;20013;-70
2022/05/02 13:52:37;;;;;;;8.25;7.38;;;;;;;;;;5018930;28;20017;-70
2022/05/02 13:55:25;;;;;;;10.77;7.47;;;;;;;;;;5020478;28;20044;-68
2022/05/02 13:57:52;;;;;;;7.50;6.65;;;;;;;;;;5019817;28;20333;-70
2022/05/02 14:03:08;;;;;;;7.80;6.60;;;;;;;;;;5021466;28;20296;-69
2022/05/02 14:05:43;;;;;;;7.97;6.82;;;;;;;;;;5014509;28;20116;-71
2022/05/02 14:08:11;;;;;;;9.38;6.90;;;;;;;;;;5022129;28;20021;-69
2022/05/02 14:10:53;;;;;;;10.30;7.32;;;;;;;;;;5019095;28;20491;-69
2022/05/02 14:13:19;;;;;;;8.30;7.07;;;;;;;;;;5020887;28;20449;-68
2022/05/02 14:15:44;;;;;;;11.60;7.78;;;;;;;;;;5016448;28;20032;-70
2022/05/02 14:18:17;;;;;;;8.07;7.28;;;;;;;;;;5019625;28;20029;-70
2022/05/02 14:20:42;;;;;;;;;;;;;;;;;;5002093;28;20776;-69
2022/05/02 14:23:08;;;;;;;8.85;6.68;;;;;;;;;;5023174;28;19917;-69
2022/05/02 14:25:35;;;;;;;9.43;6.13;;;;;;;;;;5017180;28;20391;-69
2022/05/02 14:28:13;;;;;;;7.28;6.50;;;;;;;;;;5022142;28;20022;-70
2022/05/02 14:30:43;;;;;;;6.97;5.95;;;;;;;;;;5020284;28;20569;-70
2022/05/02 14:33:11;;;;;;;7.07;6.00;;;;;;;;;;5022327;28;20068;-68
2022/05/02 14:35:38;;;;;;;7.50;6.70;;;;;;;;;;5015969;28;20314;-69
2022/05/02 14:38:04;;;;;;;6.47;5.63;;;;;;;;;;5020455;28;20025;-70
2022/05/02 14:40:30;;;;;;;8.20;5.70;;;;;;;;;;5016099;28;20433;-69
2022/05/02 14:42:55;;;;;;;7.63;5.57;;;;;;;;;;5022289;28;20111;-68
2022/05/02 14:45:21;;;;;;;8.95;5.97;;;;;;;;;;5017649;28;20164;-67
2022/05/02 14:47:49;;;;;;;6.60;5.90;;;;;;;;;;5018878;28;20215;-68
2022/05/02 14:50:15;;;;;;;8.13;6.05;;;;;;;;;;5019299;28;20836;-69
2022/05/02 14:52:40;;;;;;;7.75;5.55;;;;;;;;;;5021397;28;20542;-69
2022/05/02 14:55:08;;;;;;;9.07;6.15;;;;;;;;;;5023898;28;20520;-71
2022/05/02 14:57:33;;;;;;;8.18;6.57;;;;;;;;;;5023992;28;20152;-68
2022/05/02 15:00:01;;;;;;;9.65;6.57;;;;;;;;;;5023679;28;20154;-70
2022/05/02 15:02:28;;;;;;;7.78;6.43;;;;;;;;;;5021930;28;20079;-70
2022/05/02 15:05:00;;;;;;;9.27;5.93;;;;;;;;;;5025558;28;20021;-70
2022/05/02 15:07:28;;;;;;;8.20;6.28;;;;;;;;;;5023856;28;20386;-70
2022/05/02 15:10:13;;;;;;;9.50;7.03;;;;;;;;;;5025571;28;20045;-70
2022/05/02 15:12:46;;;;;;;6.90;6.18;;;;;;;;;;5023421;28;20013;-70
2022/05/02 15:15:28;;;;;;;10.48;6.93;;;;;;;;;;5021452;28;20045;-70
2022/05/02 15:18:16;;;;;;;8.18;6.93;;;;;;;;;;5025691;28;20026;-68
2022/05/02 15:20:43;;;;;;;9.95;7.25;;;;;;;;;;5019892;28;20579;-68
2022/05/02 15:23:11;;;;;;;8.27;7.22;;;;;;;;;;5025068;28;20053;-69